createdAt,value
2023-05-20T00:03:39.964Z,2.72
2023-05-20T00:08:42.799Z,2.65
2023-05-20T00:13:46.972Z,2.50
2023-05-20T00:18:49.766Z,2.42
2023-05-20T00:23:52.878Z,2.00
2023-05-20T00:28:56.948Z,2.63
2023-05-20T00:33:59.829Z,2.20
2023-05-20T00:39:02.673Z,2.47
2023-05-20T00:44:07.220Z,2.20
2023-05-20T00:49:10.078Z,2.85
2023-05-20T00:54:13.442Z,2.30
2023-05-20T00:59:17.977Z,2.45
2023-05-20T01:04:22.014Z,2.60
2023-05-20T01:09:25.222Z,3.00
2023-05-20T01:14:33.362Z,2.30
2023-05-20T01:19:42.113Z,2.60
2023-05-20T01:24:48.307Z,2.50
2023-05-20T01:29:52.414Z,2.40
2023-05-20T01:34:57.979Z,2.78
2023-05-20T01:40:02.548Z,3.08
2023-05-20T01:45:06.885Z,2.80
2023-05-20T01:50:10.311Z,3.13
2023-05-20T01:55:15.012Z,2.90
2023-05-20T02:00:18.322Z,2.75
2023-05-20T02:05:21.380Z,3.53
2023-05-20T02:10:25.651Z,3.50
2023-05-20T02:15:28.464Z,2.85
2023-05-20T02:20:33.001Z,3.40
2023-05-20T02:25:38.573Z,3.38
2023-05-20T02:30:41.648Z,3.45
2023-05-20T02:35:44.571Z,3.33
2023-05-20T02:40:48.720Z,3.08
2023-05-20T02:45:52.418Z,3.58
2023-05-20T02:50:55.968Z,2.90
2023-05-20T02:56:01.576Z,3.03
2023-05-20T03:01:04.580Z,3.30
2023-05-20T03:06:08.162Z,3.42
2023-05-20T03:11:12.350Z,3.80
2023-05-20T03:16:16.708Z,3.78
2023-05-20T03:21:23.772Z,3.58
2023-05-20T03:26:28.093Z,2.72
2023-05-20T03:31:31.134Z,3.08
2023-05-20T03:36:33.989Z,3.80
2023-05-20T03:41:40.596Z,4.03
2023-05-20T03:46:43.958Z,3.95
2023-05-20T03:51:47.208Z,4.15
2023-05-20T03:56:52.239Z,3.90
2023-05-20T04:01:57.014Z,3.33
2023-05-20T04:07:00.781Z,3.60
2023-05-20T04:12:06.089Z,3.70
2023-05-20T04:17:09.601Z,3.38
2023-05-20T04:22:12.687Z,3.42
2023-05-20T04:27:17.146Z,4.53
2023-05-20T04:32:21.141Z,3.78
2023-05-20T04:37:25.293Z,3.90
2023-05-20T04:42:29.902Z,3.83
2023-05-20T04:47:38.990Z,3.55
2023-05-20T04:52:43.044Z,3.95
2023-05-20T04:57:48.225Z,3.63
2023-05-20T05:02:51.048Z,3.70
2023-05-20T05:07:55.370Z,3.92
2023-05-20T05:13:00.428Z,3.22
2023-05-20T05:18:03.903Z,3.83
2023-05-20T05:23:08.399Z,3.95
2023-05-20T05:28:12.727Z,3.22
2023-05-20T05:33:17.328Z,3.25
2023-05-20T05:38:20.408Z,4.50
2023-05-20T05:43:25.338Z,4.50
2023-05-20T05:48:29.380Z,4.18
2023-05-20T05:53:32.355Z,4.63
2023-05-20T05:58:37.183Z,3.78
2023-05-20T06:03:42.206Z,3.90
2023-05-20T06:08:45.236Z,3.63
2023-05-20T06:13:50.520Z,4.53
2023-05-20T06:18:57.101Z,4.40
2023-05-20T06:23:59.997Z,4.57
2023-05-20T06:29:04.867Z,5.22
2023-05-20T06:34:09.054Z,4.30
2023-05-20T06:39:12.583Z,4.32
2023-05-20T06:44:19.266Z,4.78
2023-05-20T06:49:29.579Z,4.15
2023-05-20T06:54:34.167Z,4.13
2023-05-20T06:59:39.300Z,4.30
2023-05-20T07:04:43.115Z,5.25
2023-05-20T07:09:46.470Z,5.43
2023-05-20T07:14:51.449Z,5.18
2023-05-20T07:19:54.489Z,4.97
2023-05-20T07:24:57.459Z,4.45
2023-05-20T07:30:01.956Z,5.53
2023-05-20T07:35:07.421Z,4.97
2023-05-20T07:40:12.327Z,5.30
2023-05-20T07:45:18.291Z,6.00
2023-05-20T07:50:22.787Z,5.75
2023-05-20T07:55:25.910Z,4.97
2023-05-20T08:00:31.342Z,5.47
2023-05-20T08:05:38.873Z,5.68
2023-05-20T08:10:42.334Z,5.40
2023-05-20T08:15:48.508Z,5.25
2023-05-20T08:20:51.725Z,6.43
2023-05-20T08:25:56.399Z,6.18
2023-05-20T08:31:03.777Z,6.43
2023-05-20T08:36:08.939Z,7.68
2023-05-20T08:41:12.274Z,6.03
2023-05-20T08:46:20.427Z,6.10
2023-05-20T08:51:28.382Z,5.35
2023-05-20T08:56:32.810Z,6.38
2023-05-20T09:01:43.495Z,5.72
2023-05-20T09:06:47.375Z,7.18
2023-05-20T09:11:50.149Z,6.82
2023-05-20T09:16:54.434Z,5.53
2023-05-20T09:21:58.231Z,6.00
2023-05-20T09:27:01.050Z,6.72
2023-05-20T09:32:06.339Z,6.65
2023-05-20T09:37:11.014Z,6.68
2023-05-20T09:42:20.560Z,7.28
2023-05-20T09:47:25.682Z,6.32
2023-05-20T09:52:30.237Z,7.28
2023-05-20T09:57:35.447Z,7.13
2023-05-20T10:02:39.967Z,6.47
2023-05-20T10:07:58.594Z,7.18
2023-05-20T10:13:14.396Z,8.10
2023-05-20T10:18:31.477Z,8.13
2023-05-20T10:23:34.363Z,7.13
2023-05-20T10:28:38.513Z,7.20
2023-05-20T10:33:45.581Z,6.95
2023-05-20T10:38:53.869Z,6.47
2023-05-20T10:49:19.614Z,8.40
2023-05-20T10:54:24.572Z,6.82
2023-05-20T10:59:27.580Z,7.60
2023-05-20T11:04:32.625Z,6.43
2023-05-20T11:09:36.412Z,6.78
2023-05-20T11:14:39.190Z,6.88
2023-05-20T11:19:43.536Z,6.00
2023-05-20T11:24:48.289Z,6.53
2023-05-20T11:29:51.917Z,7.57
2023-05-20T11:34:56.641Z,7.25
2023-05-20T11:40:11.031Z,8.50
2023-05-20T11:45:14.744Z,8.63
2023-05-20T11:50:19.837Z,7.72
2023-05-20T11:55:22.640Z,7.68
2023-05-20T12:00:29.275Z,7.43
2023-05-20T12:05:35.929Z,17.42
2023-05-20T12:10:39.212Z,8.85
2023-05-20T12:15:42.585Z,7.45
2023-05-20T12:20:46.969Z,7.32
2023-05-20T12:25:50.175Z,7.65
2023-05-20T12:30:53.330Z,7.38
2023-05-20T12:35:59.329Z,8.20
2023-05-20T12:41:02.192Z,7.03
2023-05-20T12:46:05.860Z,9.40
2023-05-20T12:51:10.046Z,7.57
2023-05-20T12:56:15.143Z,6.00
2023-05-20T13:01:17.967Z,5.93
2023-05-20T13:06:23.965Z,5.47
2023-05-20T13:11:26.920Z,5.77
2023-05-20T13:16:29.784Z,5.78
2023-05-20T13:21:34.607Z,5.65
2023-05-20T13:26:38.311Z,5.55
2023-05-20T13:31:41.126Z,4.43
2023-05-20T13:36:45.579Z,5.85
2023-05-20T13:41:48.475Z,7.45
2023-05-20T13:46:52.144Z,5.53
2023-05-20T13:51:56.524Z,6.15
2023-05-20T13:56:59.511Z,6.43
2023-05-20T14:02:04.450Z,6.03
2023-05-20T14:07:10.160Z,5.80
2023-05-20T14:12:13.749Z,5.57
2023-05-20T14:17:16.742Z,5.72
2023-05-20T14:22:20.976Z,5.82
2023-05-20T14:27:24.155Z,7.68
2023-05-20T14:32:27.138Z,5.68
2023-05-20T14:37:31.408Z,5.40
2023-05-20T14:42:34.596Z,5.47
2023-05-20T14:47:40.153Z,5.03
2023-05-20T14:52:44.449Z,5.13
2023-05-20T14:57:47.636Z,6.47
2023-05-20T15:02:50.499Z,4.72
2023-05-20T15:07:57.453Z,5.72
2023-05-20T15:13:00.331Z,4.75
2023-05-20T15:18:03.145Z,5.43
2023-05-20T15:23:07.381Z,5.22
2023-05-20T15:28:10.781Z,5.27
2023-05-20T15:33:13.698Z,4.80
2023-05-20T15:38:18.747Z,4.78
2023-05-20T15:43:22.342Z,4.88
2023-05-20T15:48:25.289Z,6.50
2023-05-20T15:53:29.444Z,6.03
2023-05-20T15:58:32.476Z,5.78
2023-05-20T16:03:35.905Z,6.13
2023-05-20T16:08:41.789Z,5.43
2023-05-20T16:13:44.533Z,6.15
2023-05-20T16:18:47.405Z,6.43
2023-05-20T16:23:52.672Z,6.93
2023-05-20T16:28:55.947Z,7.65
2023-05-20T16:33:59.845Z,6.15
2023-05-20T16:39:04.334Z,6.85
2023-05-20T16:44:07.180Z,6.07
2023-05-20T16:49:10.011Z,5.85
2023-05-20T16:54:14.131Z,6.57
2023-05-20T16:59:18.738Z,6.30
2023-05-20T17:04:21.619Z,6.00
2023-05-20T17:09:25.941Z,5.85
2023-05-20T17:14:28.740Z,6.07
2023-05-20T17:19:31.831Z,5.85
2023-05-20T17:24:36.863Z,6.55
2023-05-20T17:29:39.716Z,6.82
2023-05-20T17:34:42.519Z,6.40
2023-05-20T17:39:46.976Z,7.07
2023-05-20T17:44:49.863Z,7.30
2023-05-20T17:49:53.108Z,7.07
2023-05-20T17:54:57.288Z,7.82
2023-05-20T18:00:00.228Z,7.80
2023-05-20T18:05:03.033Z,8.38
2023-05-20T18:10:10.190Z,8.25
2023-05-20T18:15:14.202Z,8.98
2023-05-20T18:20:17.933Z,8.90
2023-05-20T18:25:23.404Z,9.52
2023-05-20T18:30:26.426Z,8.85
2023-05-20T18:35:29.550Z,10.13
2023-05-20T18:40:35.824Z,10.35
2023-05-20T18:45:38.858Z,11.43
2023-05-20T18:50:41.997Z,11.13
2023-05-20T18:55:47.660Z,11.32
2023-05-20T19:00:51.051Z,11.65
2023-05-20T19:05:55.599Z,11.40
2023-05-20T19:10:59.868Z,14.00
2023-05-20T19:16:02.837Z,13.43
2023-05-20T19:21:07.292Z,18.15
2023-05-20T19:26:11.911Z,15.82
2023-05-20T19:31:20.820Z,13.75
2023-05-20T19:36:25.738Z,14.27
2023-05-20T19:41:30.016Z,13.05
2023-05-20T19:46:32.996Z,14.07
2023-05-20T19:51:36.650Z,14.23
2023-05-20T19:56:41.827Z,15.27
2023-05-20T20:01:45.162Z,14.68
2023-05-20T20:06:49.273Z,15.25
2023-05-20T20:11:53.454Z,15.30
2023-05-20T20:16:56.275Z,15.25
2023-05-20T20:21:59.268Z,15.95
2023-05-20T20:27:04.559Z,14.60
2023-05-20T20:32:08.085Z,15.88
2023-05-20T20:37:15.327Z,15.07
2023-05-20T20:47:23.652Z,16.55
2023-05-20T20:52:26.645Z,16.80
2023-05-20T20:57:32.055Z,17.10
2023-05-20T21:02:34.888Z,15.93
2023-05-20T21:07:38.969Z,16.75
2023-05-20T21:12:43.193Z,15.27
2023-05-20T21:17:46.118Z,15.70
2023-05-20T21:22:48.959Z,17.77
2023-05-20T21:27:53.076Z,17.35
2023-05-20T21:32:56.072Z,17.88
2023-05-20T21:37:59.313Z,16.88
2023-05-20T21:43:03.503Z,17.27
2023-05-20T21:48:07.194Z,17.65
2023-05-20T21:53:10.328Z,18.25
2023-05-20T21:58:14.665Z,17.98
2023-05-20T22:03:17.878Z,19.00
2023-05-20T22:08:20.929Z,17.35
2023-05-20T22:13:26.157Z,17.45
2023-05-20T22:18:29.145Z,18.48
2023-05-20T22:23:31.991Z,16.65
2023-05-20T22:28:36.221Z,17.80
2023-05-20T22:33:41.314Z,16.85
2023-05-20T22:38:44.132Z,17.33
2023-05-20T22:43:48.299Z,17.40
2023-05-20T22:48:52.815Z,16.75
2023-05-20T22:53:56.601Z,18.33
2023-05-20T22:59:00.909Z,16.92
2023-05-20T23:04:03.765Z,16.98
2023-05-20T23:09:07.385Z,17.73
2023-05-20T23:14:12.196Z,18.17
2023-05-20T23:19:15.109Z,17.60
2023-05-20T23:24:17.932Z,17.33
2023-05-20T23:29:22.360Z,15.68
2023-05-20T23:34:25.156Z,17.63
2023-05-20T23:39:27.926Z,16.85
2023-05-20T23:44:32.186Z,16.48
2023-05-20T23:49:35.206Z,16.80
2023-05-20T23:54:37.939Z,15.88
2023-05-20T23:59:43.011Z,16.85
